Norwegian Jade — C6WK7 — position and weather

sailwx.info

Track history (hours):
 
Tides and Currents Weather Stations Pressure Air Temp Water Temp Dewpoint Dewpoint Depression Visibility Wind Speed Wind Dir Waves Ship Positions

Norwegian Jade

Last reported at 2017-Dec-11 16:58 UTC. Time now 2017-Dec-14 15:09 UTC.
Position N 09°15' W 079°55'.

Length 294 m; draft 8.6 m.

Type: Passenger vessel. MMSI: 308416000.

Date/timePositionNaut miles runAvg speedWind from/ knotsBaromVisibWave heightAir tempDewpointWater temp
2017-Dec-11 16:58N 09°15' W 079°55'0 0.0
2017-Dec-11 16:16N 09°16' W 079°55'0 0.1
2017-Dec-11 15:52N 09°16' W 079°55'0 0.0
2017-Dec-11 15:22N 09°16' W 079°55'0 0.0
2017-Dec-11 14:58N 09°16' W 079°55'0 0.0
2017-Dec-11 14:28N 09°16' W 079°55'0 0.0
2017-Dec-11 13:58N 09°16' W 079°55'0 0.0
2017-Dec-11 13:28N 09°16' W 079°55'1 1.2
2017-Dec-11 13:00N 09°16' W 079°55'0 0.8
2017-Dec-11 12:30N 09°16' W 079°55'0 0.4
2017-Dec-11 12:00N 09°17' W 079°55'0 0.7
2017-Dec-11 11:30N 09°17' W 079°55'1 2.4
2017-Dec-11 11:00N 09°18' W 079°55'2 3.5
2017-Dec-11 10:30N 09°20' W 079°55'3 6.3
2017-Dec-11 10:00N 09°23' W 079°55'815.2
2017-Dec-11 09:31N 09°30' W 079°54'918.9
2017-Dec-11 09:01N 09°39' W 079°50'917.4
2017-Dec-11 08:29N 09°44' W 079°42'1619.1
2017-Dec-11 07:38N 09°46' W 079°25'22319.9
2017-Dec-10 20:25N 10°18' W 075°41'614.6
2017-Dec-10 20:00N 10°19' W 075°35'510.0
2017-Dec-10 19:30N 10°23' W 075°32'1 1.5
2017-Dec-10 18:36N 10°24' W 075°32'0 0.0
2017-Dec-10 18:30N 10°24' W 075°32'0 0.0
2017-Dec-10 18:00N 10°24' W 075°32'0 0.0
2017-Dec-10 17:24N 10°24' W 075°32'2 4.6
2017-Dec-10 17:00N 10°24' W 075°30'210.1 320 / 51013.127.0 30.0 31.0
2017-Dec-10 16:48N 10°24' W 075°32'0 0.0
2017-Dec-10 15:48N 10°24' W 075°32'0 0.0
2017-Dec-10 15:30N 10°24' W 075°32'0 0.0
2017-Dec-10 15:00N 10°24' W 075°32'  
2017-Dec-07 23:50N 25°22' W 079°52'618.0
2017-Dec-07 23:30N 25°28' W 079°54'917.8
2017-Dec-07 23:00N 25°36' W 079°57'917.9
2017-Dec-07 22:30N 25°43' W 080°03'510.2
2017-Dec-07 22:00N 25°46' W 080°08'2 3.3
2017-Dec-07 21:28N 25°46' W 080°10'0 0.0
2017-Dec-07 20:58N 25°46' W 080°10'0 0.0
2017-Dec-07 20:28N 25°46' W 080°10'0 0.0
2017-Dec-07 19:58N 25°46' W 080°10'0 0.0
2017-Dec-07 19:28N 25°46' W 080°10'0 0.0
2017-Dec-07 18:58N 25°46' W 080°10'0 0.0
2017-Dec-07 18:28N 25°46' W 080°10'0 0.0
2017-Dec-07 17:58N 25°46' W 080°10'0 0.0
2017-Dec-07 17:28N 25°46' W 080°10'0 0.0
2017-Dec-07 16:58N 25°46' W 080°10'0 0.0
2017-Dec-07 16:28N 25°46' W 080°10'0 0.0
2017-Dec-07 15:49N 25°46' W 080°10'0 0.0
2017-Dec-07 15:22N 25°46' W 080°10'0 0.0
2017-Dec-07 14:55N 25°46' W 080°10'0 0.0
2017-Dec-07 14:22N 25°46' W 080°10'0 0.0
2017-Dec-07 13:52N 25°46' W 080°10'0 0.0
2017-Dec-07 13:22N 25°46' W 080°10'0 0.0
2017-Dec-07 12:52N 25°46' W 080°10'0 0.0
2017-Dec-07 12:22N 25°46' W 080°10'0 0.0
2017-Dec-07 11:55N 25°46' W 080°10'0 0.0
2017-Dec-07 11:31N 25°46' W 080°10'1 2.3
2017-Dec-07 11:00N 25°47' W 080°11'2 4.1
2017-Dec-07 10:30N 25°46' W 080°09'510.8
2017-Dec-07 10:00N 25°46' W 080°03'611.6
2017-Dec-07 09:30N 25°42' W 079°58'917.4
2017-Dec-07 09:00N 25°34' W 079°56'918.8
2017-Dec-07 08:30N 25°24' W 079°53'  
Track history (hours):
 
Tides and Currents Weather Stations Pressure Air Temp Water Temp Dewpoint Dewpoint Depression Visibility Wind Speed Wind Dir Waves Ship Positions

Norwegian Jade

Last reported at 2017-Dec-11 16:58 UTC. Time now 2017-Dec-14 15:09 UTC.
Position N 09°15' W 079°55'.

Length 294 m; draft 8.6 m.

Type: Passenger vessel. MMSI: 308416000.

Date/timePositionNaut miles runAvg speedWind from/ knotsBaromVisibWave heightAir tempDewpointWater temp
2017-Dec-11 16:58N 09°15' W 079°55'0 0.0
2017-Dec-11 16:16N 09°16' W 079°55'0 0.1
2017-Dec-11 15:52N 09°16' W 079°55'0 0.0
2017-Dec-11 15:22N 09°16' W 079°55'0 0.0
2017-Dec-11 14:58N 09°16' W 079°55'0 0.0
2017-Dec-11 14:28N 09°16' W 079°55'0 0.0
2017-Dec-11 13:58N 09°16' W 079°55'0 0.0
2017-Dec-11 13:28N 09°16' W 079°55'1 1.2
2017-Dec-11 13:00N 09°16' W 079°55'0 0.8
2017-Dec-11 12:30N 09°16' W 079°55'0 0.4
2017-Dec-11 12:00N 09°17' W 079°55'0 0.7
2017-Dec-11 11:30N 09°17' W 079°55'1 2.4
2017-Dec-11 11:00N 09°18' W 079°55'2 3.5
2017-Dec-11 10:30N 09°20' W 079°55'3 6.3
2017-Dec-11 10:00N 09°23' W 079°55'815.2
2017-Dec-11 09:31N 09°30' W 079°54'918.9
2017-Dec-11 09:01N 09°39' W 079°50'917.4
2017-Dec-11 08:29N 09°44' W 079°42'1619.1
2017-Dec-11 07:38N 09°46' W 079°25'22319.9
2017-Dec-10 20:25N 10°18' W 075°41'614.6
2017-Dec-10 20:00N 10°19' W 075°35'510.0
2017-Dec-10 19:30N 10°23' W 075°32'1 1.5
2017-Dec-10 18:36N 10°24' W 075°32'0 0.0
2017-Dec-10 18:30N 10°24' W 075°32'0 0.0
2017-Dec-10 18:00N 10°24' W 075°32'0 0.0
2017-Dec-10 17:24N 10°24' W 075°32'2 4.6
2017-Dec-10 17:00N 10°24' W 075°30'210.1 320 / 51013.127.0 30.0 31.0
2017-Dec-10 16:48N 10°24' W 075°32'0 0.0
2017-Dec-10 15:48N 10°24' W 075°32'0 0.0
2017-Dec-10 15:30N 10°24' W 075°32'0 0.0
2017-Dec-10 15:00N 10°24' W 075°32'  
2017-Dec-07 23:50N 25°22' W 079°52'618.0
2017-Dec-07 23:30N 25°28' W 079°54'917.8
2017-Dec-07 23:00N 25°36' W 079°57'917.9
2017-Dec-07 22:30N 25°43' W 080°03'510.2
2017-Dec-07 22:00N 25°46' W 080°08'2 3.3
2017-Dec-07 21:28N 25°46' W 080°10'0 0.0
2017-Dec-07 20:58N 25°46' W 080°10'0 0.0
2017-Dec-07 20:28N 25°46' W 080°10'0 0.0
2017-Dec-07 19:58N 25°46' W 080°10'0 0.0
2017-Dec-07 19:28N 25°46' W 080°10'0 0.0
2017-Dec-07 18:58N 25°46' W 080°10'0 0.0
2017-Dec-07 18:28N 25°46' W 080°10'0 0.0
2017-Dec-07 17:58N 25°46' W 080°10'0 0.0
2017-Dec-07 17:28N 25°46' W 080°10'0 0.0
2017-Dec-07 16:58N 25°46' W 080°10'0 0.0
2017-Dec-07 16:28N 25°46' W 080°10'0 0.0
2017-Dec-07 15:49N 25°46' W 080°10'0 0.0
2017-Dec-07 15:22N 25°46' W 080°10'0 0.0
2017-Dec-07 14:55N 25°46' W 080°10'0 0.0
2017-Dec-07 14:22N 25°46' W 080°10'0 0.0
2017-Dec-07 13:52N 25°46' W 080°10'0 0.0
2017-Dec-07 13:22N 25°46' W 080°10'0 0.0
2017-Dec-07 12:52N 25°46' W 080°10'0 0.0
2017-Dec-07 12:22N 25°46' W 080°10'0 0.0
2017-Dec-07 11:55N 25°46' W 080°10'0 0.0
2017-Dec-07 11:31N 25°46' W 080°10'1 2.3
2017-Dec-07 11:00N 25°47' W 080°11'2 4.1
2017-Dec-07 10:30N 25°46' W 080°09'510.8
2017-Dec-07 10:00N 25°46' W 080°03'611.6
2017-Dec-07 09:30N 25°42' W 079°58'917.4
2017-Dec-07 09:00N 25°34' W 079°56'918.8
2017-Dec-07 08:30N 25°24' W 079°53'  

Dump ship's entire track history